Time;durP1;ratioP1;P1;durP2;ratioP2;P2;SDS_P1;SDS_P2;PMS_P1;PMS_P2;Temp;Humidity;BMP_temperature;BMP_pressure;BME280_temperature;BME280_humidity;BME280_pressure;Samples;Min_cycle;Max_cycle;Signal;HPM_P1;HPM_P2
2022/09/17 00:00:58;;;;;;;6.15;1.48;;;;;;;10.37;80.39;101506.34;4783567;29;20153;-95
2022/09/17 00:03:24;;;;;;;4.55;1.48;;;;;;;10.39;80.23;101515.84;4838255;29;20099;-96
2022/09/17 00:05:59;;;;;;;3.55;1.10;;;;;;;10.44;79.77;101510.22;4839323;29;20038;-96
2022/09/17 00:08:25;;;;;;;3.50;1.17;;;;;;;10.39;79.91;101517.66;4828377;29;20042;-96
2022/09/17 00:10:51;;;;;;;2.25;1.10;;;;;;;10.35;79.76;101514.38;4809070;29;20555;-96
2022/09/17 00:13:16;;;;;;;5.65;1.30;;;;;;;10.33;79.95;101511.03;4824398;29;20372;-96
2022/09/17 00:15:45;;;;;;;4.13;1.25;;;;;;;10.33;79.88;101505.75;4828373;29;20030;-96
2022/09/17 00:18:12;;;;;;;6.07;1.30;;;;;;;10.25;79.79;101516.91;4822246;29;20053;-96
2022/09/17 00:20:43;;;;;;;3.42;1.20;;;;;;;10.22;79.91;101514.50;4843146;29;20057;-96
2022/09/17 00:23:10;;;;;;;3.25;1.20;;;;;;;10.16;79.77;101520.25;4831932;29;20046;-96
2022/09/17 00:25:44;;;;;;;2.97;1.42;;;;;;;10.10;79.64;101518.03;4840873;29;20073;-96
2022/09/17 00:28:12;;;;;;;4.88;1.80;;;;;;;10.10;80.07;101515.38;4853884;29;20050;-96
2022/09/17 00:30:43;;;;;;;5.95;1.60;;;;;;;10.09;79.79;101516.34;4843940;29;20499;-96
2022/09/17 00:33:12;;;;;;;2.95;1.30;;;;;;;10.08;79.59;101520.78;4827334;29;20134;-96
2022/09/17 00:35:38;;;;;;;2.70;1.23;;;;;;;10.06;79.37;101512.16;4843431;29;20041;-96
2022/09/17 00:38:04;;;;;;;3.10;1.02;;;;;;;10.05;79.61;101519.22;4841406;29;20053;-96
2022/09/17 00:40:30;;;;;;;5.38;1.60;;;;;;;10.03;79.56;101517.66;4829112;29;20448;-96
2022/09/17 00:42:55;;;;;;;5.18;1.30;;;;;;;10.01;79.37;101523.06;4844450;29;20038;-96
2022/09/17 00:45:23;;;;;;;2.55;1.20;;;;;;;10.03;79.45;101515.84;4842504;29;20122;-96
2022/09/17 00:48:00;;;;;;;6.03;1.65;;;;;;;10.01;79.13;101517.78;4830701;29;20053;-96
2022/09/17 00:50:35;;;;;;;2.90;1.15;;;;;;;9.99;79.20;101521.47;4829557;29;20045;-96
2022/09/17 00:53:09;;;;;;;4.28;1.27;;;;;;;9.88;78.83;101522.28;4829310;29;20069;-96
2022/09/17 00:55:53;;;;;;;5.03;1.20;;;;;;;9.78;79.07;101517.66;4828997;29;20479;-95
2022/09/17 00:58:21;;;;;;;1.83;1.05;;;;;;;9.65;79.04;101514.25;4827999;29;20034;-96
2022/09/17 01:00:47;;;;;;;2.38;1.17;;;;;;;9.57;79.02;101513.97;4862294;29;20182;-96
2022/09/17 01:03:14;;;;;;;3.60;1.30;;;;;;;9.51;79.10;101518.72;4844350;29;20052;-96
2022/09/17 01:05:53;;;;;;;3.63;1.10;;;;;;;9.46;78.49;101512.09;4860384;29;20031;-96
2022/09/17 01:08:41;;;;;;;3.35;1.30;;;;;;;9.39;78.48;101522.25;4828844;29;20510;-96
2022/09/17 01:11:30;;;;;;;1.60;0.98;;;;;;;9.30;78.65;101521.13;4841525;29;20049;-96
2022/09/17 01:14:07;;;;;;;4.22;1.40;;;;;;;9.18;78.89;101517.53;4814321;29;20050;-96
2022/09/17 01:16:50;;;;;;;2.58;1.17;;;;;;;9.11;79.20;101514.50;4836339;29;20121;-96
2022/09/17 01:19:41;;;;;;;2.67;1.10;;;;;;;9.02;79.42;101512.50;4824968;29;20045;-96
2022/09/17 01:22:20;;;;;;;6.50;1.52;;;;;;;8.98;79.85;101521.59;4840304;29;20072;-96
2022/09/17 01:24:59;;;;;;;8.50;1.10;;;;;;;8.99;80.10;101526.75;4817695;29;20093;-96
2022/09/17 01:27:46;;;;;;;5.10;1.30;;;;;;;8.99;79.98;101533.81;4849053;29;20037;-96
2022/09/17 01:30:21;;;;;;;5.10;1.38;;;;;;;9.01;80.19;101529.28;4817181;29;20045;-96
2022/09/17 01:33:05;;;;;;;2.35;0.82;;;;;;;9.04;80.26;101518.53;4837088;29;20059;-96
2022/09/17 01:35:51;;;;;;;5.85;1.58;;;;;;;9.06;80.19;101520.09;4846446;29;20037;-96
2022/09/17 01:38:36;;;;;;;1.67;1.10;;;;;;;9.11;80.10;101521.56;4846258;29;20041;-96
2022/09/17 01:41:14;;;;;;;2.30;1.20;;;;;;;9.08;79.95;101525.25;4831040;29;20061;-96
2022/09/17 01:43:45;;;;;;;2.05;1.00;;;;;;;9.01;79.93;101524.88;4844649;29;20038;-96
2022/09/17 01:46:29;;;;;;;2.95;1.40;;;;;;;8.85;80.03;101517.19;4848556;29;20040;-96
2022/09/17 01:48:59;;;;;;;3.15;1.13;;;;;;;8.70;80.16;101519.06;4816799;29;20491;-96
2022/09/17 01:51:29;;;;;;;3.35;1.20;;;;;;;8.54;80.68;101514.84;4825471;29;20049;-96
2022/09/17 01:54:14;;;;;;;4.07;1.08;;;;;;;8.46;80.93;101516.28;4850839;29;20080;-96
2022/09/17 01:56:49;;;;;;;6.68;1.10;;;;;;;8.46;80.44;101522.38;4845829;29;20071;-96
2022/09/17 01:59:21;;;;;;;2.97;1.58;;;;;;;8.47;80.92;101523.25;4828673;29;20056;-96
2022/09/17 02:01:51;;;;;;;2.35;1.00;;;;;;;8.47;80.46;101521.47;4861390;29;20072;-96
2022/09/17 02:04:27;;;;;;;3.22;1.20;;;;;;;8.39;80.64;101515.84;4845203;29;20045;-96
2022/09/17 02:07:01;;;;;;;1.73;1.10;;;;;;;8.32;80.90;101515.41;4809410;29;20042;-96
2022/09/17 02:09:35;;;;;;;4.70;1.13;;;;;;;8.34;81.20;101513.53;4861039;29;20033;-96
2022/09/17 02:12:08;;;;;;;4.32;1.05;;;;;;;8.38;80.87;101511.50;4821989;29;20407;-96
2022/09/17 02:14:40;;;;;;;5.68;1.00;;;;;;;8.39;80.47;101521.13;4837890;29;20064;-96
2022/09/17 02:17:14;;;;;;;4.18;1.38;;;;;;;8.39;80.20;101511.41;4846199;29;20045;-96
2022/09/17 02:19:40;;;;;;;4.05;1.17;;;;;;;8.42;80.26;101520.91;4843447;29;20044;-96
2022/09/17 02:22:09;;;;;;;2.90;1.30;;;;;;;8.40;80.16;101518.38;4832207;29;20110;-96
2022/09/17 02:27:46;;;;;;;5.30;1.40;;;;;;;8.31;80.17;101516.38;4851929;29;20093;-96
2022/09/17 02:30:12;;;;;;;5.82;1.13;;;;;;;8.27;80.32;101512.25;4845959;29;20048;-96
2022/09/17 02:32:38;;;;;;;5.18;1.58;;;;;;;8.25;80.73;101508.88;4847783;29;20038;-96
2022/09/17 02:35:05;;;;;;;4.25;1.40;;;;;;;8.22;80.49;101515.19;4845643;29;20029;-96
2022/09/17 02:37:31;;;;;;;1.73;1.00;;;;;;;8.14;80.52;101513.06;4845107;29;20044;-96
2022/09/17 02:39:57;;;;;;;2.10;1.40;;;;;;;8.02;80.84;101498.06;4859942;29;20037;-96
2022/09/17 02:42:52;;;;;;;3.67;1.80;;;;;;;8.00;79.95;101505.22;4845109;29;20089;-96
2022/09/17 02:45:36;;;;;;;3.83;1.55;;;;;;;7.93;80.56;101510.91;4781180;29;20119;-96
2022/09/17 02:48:47;;;;;;;4.05;1.80;;;;;;;7.89;80.44;101511.19;4845943;29;20105;-96
2022/09/17 02:51:22;;;;;;;2.90;1.70;;;;;;;7.91;80.49;101504.91;4820683;29;20057;-96
2022/09/17 02:54:13;;;;;;;2.05;1.10;;;;;;;7.88;79.85;101499.84;4829990;29;20061;-96
2022/09/17 02:57:07;;;;;;;1.15;1.00;;;;;;;7.89;79.95;101492.78;4841006;29;20396;-96
2022/09/17 02:59:41;;;;;;;5.50;1.20;;;;;;;7.87;79.50;101506.03;4843664;29;20053;-96
2022/09/17 03:02:18;;;;;;;2.90;1.33;;;;;;;7.84;79.13;101494.84;4846030;29;20077;-96
2022/09/17 03:04:48;;;;;;;3.90;1.52;;;;;;;7.80;79.34;101495.06;4839406;29;20128;-96
2022/09/17 03:07:15;;;;;;;4.00;1.45;;;;;;;7.75;78.82;101494.53;4845645;29;20041;-96
2022/09/17 03:09:42;;;;;;;2.13;1.30;;;;;;;7.64;79.11;101492.59;4829448;29;20070;-96
2022/09/17 03:12:09;;;;;;;1.73;1.20;;;;;;;7.55;79.48;101490.53;4827535;29;20509;-96
2022/09/17 03:14:35;;;;;;;2.35;1.38;;;;;;;7.46;79.53;101494.59;4846233;29;20461;-96
2022/09/17 03:17:02;;;;;;;2.20;1.15;;;;;;;7.38;79.16;101495.09;4862168;29;20029;-96
2022/09/17 03:19:27;;;;;;;2.38;1.42;;;;;;;7.35;79.85;101497.06;4853293;29;20048;-96
2022/09/17 03:21:53;;;;;;;4.05;1.50;;;;;;;7.34;79.58;101505.91;4847786;29;20124;-96
2022/09/17 03:24:19;;;;;;;2.47;1.20;;;;;;;7.36;79.69;101496.97;4819911;29;20049;-96
2022/09/17 03:26:46;;;;;;;1.50;1.00;;;;;;;7.42;79.40;101507.09;4829618;29;20061;-96
2022/09/17 03:29:13;;;;;;;5.20;1.08;;;;;;;7.42;78.91;101512.38;4814892;29;20069;-96
2022/09/17 03:31:39;;;;;;;3.20;1.30;;;;;;;7.42;78.95;101517.63;4831750;29;20136;-96
2022/09/17 03:34:08;;;;;;;3.53;1.05;;;;;;;7.37;79.17;101506.56;4850272;29;20065;-96
2022/09/17 03:36:34;;;;;;;3.35;1.25;;;;;;;7.34;79.19;101514.66;4849666;29;20080;-96
2022/09/17 03:39:00;;;;;;;1.92;1.10;;;;;;;7.31;79.19;101514.84;4845995;29;20052;-96
2022/09/17 03:41:26;;;;;;;2.45;1.10;;;;;;;7.22;79.27;101510.13;4860359;29;20129;-96
2022/09/17 03:43:53;;;;;;;2.65;1.10;;;;;;;7.15;79.55;101526.31;4860319;29;20045;-96
2022/09/17 03:46:19;;;;;;;4.57;1.35;;;;;;;7.12;80.29;101521.22;4849279;29;20050;-96
2022/09/17 03:48:45;;;;;;;2.17;1.10;;;;;;;7.08;79.67;101514.47;4827808;29;20068;-96
2022/09/17 03:51:12;;;;;;;1.70;1.00;;;;;;;7.10;79.31;101523.13;4849564;29;20049;-96
2022/09/17 03:53:39;;;;;;;2.08;0.95;;;;;;;7.06;79.38;101516.34;4852539;29;20070;-96
2022/09/17 03:56:06;;;;;;;1.10;1.00;;;;;;;7.04;79.76;101513.81;4850563;29;20467;-96
2022/09/17 03:58:33;;;;;;;4.68;0.90;;;;;;;7.03;79.60;101512.13;4848906;29;20075;-96
2022/09/17 04:01:00;;;;;;;2.30;0.80;;;;;;;6.98;79.45;101498.44;4848232;29;20567;-96
2022/09/17 04:03:27;;;;;;;1.50;0.90;;;;;;;7.03;79.53;101512.13;4831830;29;20044;-96
2022/09/17 04:05:53;;;;;;;3.25;1.13;;;;;;;7.02;79.54;101506.97;4844290;29;20399;-96
2022/09/17 04:08:20;;;;;;;3.67;0.80;;;;;;;7.05;79.74;101512.91;4846885;29;20101;-96
2022/09/17 04:10:47;;;;;;;2.38;1.02;;;;;;;7.03;79.55;101506.88;4832715;29;20030;-96
2022/09/17 04:13:14;;;;;;;2.88;1.02;;;;;;;7.01;79.76;101502.63;4836114;29;20054;-96
2022/09/17 04:15:41;;;;;;;2.58;1.20;;;;;;;7.03;79.67;101504.25;4836233;29;20030;-96
2022/09/17 04:18:07;;;;;;;1.27;0.80;;;;;;;7.04;79.64;101498.03;4833177;29;20114;-96
2022/09/17 04:20:33;;;;;;;3.60;0.80;;;;;;;7.09;79.18;101510.91;4839919;29;20034;-96
2022/09/17 04:23:00;;;;;;;2.50;0.95;;;;;;;7.12;79.52;101510.72;4855198;29;20155;-96
2022/09/17 04:25:26;;;;;;;1.48;1.13;;;;;;;7.09;79.24;101510.91;4843132;29;20149;-96
2022/09/17 04:27:53;;;;;;;1.17;0.88;;;;;;;7.00;78.87;101508.84;4834245;29;20046;-96
2022/09/17 04:30:19;;;;;;;1.92;1.15;;;;;;;6.98;79.21;101508.94;4837053;29;20117;-96
2022/09/17 04:32:46;;;;;;;1.92;0.90;;;;;;;6.79;79.13;101517.97;4854455;29;20045;-96
2022/09/17 04:35:12;;;;;;;3.30;1.02;;;;;;;6.54;79.30;101524.69;4855081;29;20048;-96
2022/09/17 04:37:40;;;;;;;2.78;1.23;;;;;;;6.30;79.31;101521.72;4845713;29;20142;-96
2022/09/17 04:40:07;;;;;;;1.60;0.98;;;;;;;6.06;80.40;101512.56;4858799;29;20049;-96
2022/09/17 04:42:34;;;;;;;2.53;0.70;;;;;;;6.00;80.77;101506.78;4827259;29;20045;-96
2022/09/17 04:45:00;;;;;;;2.10;1.17;;;;;;;6.09;80.62;101506.28;4878529;29;20101;-96
2022/09/17 04:47:26;;;;;;;3.53;0.60;;;;;;;6.13;79.86;101507.78;4839056;29;20031;-96
2022/09/17 04:49:53;;;;;;;3.92;0.98;;;;;;;6.15;79.81;101513.78;4857017;29;20049;-96
2022/09/17 04:52:19;;;;;;;1.23;0.70;;;;;;;6.15;79.77;101508.53;4854236;29;20033;-96
2022/09/17 04:54:46;;;;;;;1.73;0.88;;;;;;;6.18;79.43;101504.91;4838729;29;20050;-96
2022/09/17 04:57:12;;;;;;;3.85;1.10;;;;;;;6.19;79.53;101504.81;4842184;29;20052;-96
2022/09/17 04:59:39;;;;;;;1.10;0.82;;;;;;;6.22;80.07;101506.41;4843680;29;20052;-96
2022/09/17 05:02:05;;;;;;;3.63;0.90;;;;;;;6.17;79.73;101503.19;4842302;29;20052;-96
2022/09/17 05:04:31;;;;;;;1.85;0.80;;;;;;;6.13;80.22;101504.31;4829756;29;20045;-96
2022/09/17 05:06:59;;;;;;;1.25;0.77;;;;;;;6.11;80.19;101506.19;4855766;29;20049;-96
2022/09/17 05:09:25;;;;;;;1.67;0.93;;;;;;;6.05;80.26;101499.53;4854590;29;20045;-96
2022/09/17 05:11:52;;;;;;;2.05;1.00;;;;;;;6.05;80.29;101502.97;4853404;29;20102;-96
2022/09/17 05:14:18;;;;;;;1.33;0.80;;;;;;;6.08;79.91;101505.41;4859954;29;20076;-96
2022/09/17 05:16:45;;;;;;;2.85;1.35;;;;;;;5.99;80.07;101511.16;4832356;29;20054;-96
2022/09/17 05:19:11;;;;;;;8.57;1.08;;;;;;;5.81;80.28;101510.44;4837261;29;20046;-96
2022/09/17 05:21:37;;;;;;;1.67;0.82;;;;;;;5.80;80.99;101509.59;4838190;29;20052;-97
2022/09/17 05:24:03;;;;;;;1.77;0.80;;;;;;;5.88;80.72;101511.78;4851801;29;20038;-96
2022/09/17 05:26:30;;;;;;;1.35;0.77;;;;;;;5.92;80.55;101509.84;4833528;29;20054;-96
2022/09/17 05:28:56;;;;;;;1.55;0.60;;;;;;;5.99;80.36;101505.91;4850612;29;20114;-96
2022/09/17 05:31:24;;;;;;;1.63;1.00;;;;;;;5.92;79.77;101500.19;4835067;29;20046;-96
2022/09/17 05:33:51;;;;;;;4.43;0.73;;;;;;;5.87;79.73;101502.22;4838098;29;20079;-96
2022/09/17 05:36:17;;;;;;;2.13;0.80;;;;;;;5.86;80.39;101515.44;4834948;29;20062;-96
2022/09/17 05:38:43;;;;;;;0.75;0.60;;;;;;;5.82;80.03;101514.75;4853198;29;20030;-96
2022/09/17 05:41:10;;;;;;;1.58;0.80;;;;;;;5.79;80.59;101500.03;4838503;29;20577;-96
2022/09/17 05:43:36;;;;;;;5.93;1.45;;;;;;;5.89;80.51;101512.63;4834993;29;20036;-96
2022/09/17 05:46:04;;;;;;;2.08;0.90;;;;;;;5.94;79.46;101511.44;4847278;29;20483;-96
2022/09/17 05:48:31;;;;;;;4.03;0.90;;;;;;;5.96;79.25;101513.97;4847571;29;20034;-96
2022/09/17 05:51:00;;;;;;;1.77;1.00;;;;;;;6.04;79.53;101521.41;4836163;29;20042;-96
2022/09/17 05:53:26;;;;;;;1.95;1.00;;;;;;;6.00;79.06;101519.91;4867272;29;20042;-96
2022/09/17 05:55:58;;;;;;;5.93;0.98;;;;;;;6.01;78.93;101521.56;4853811;29;20041;-96
2022/09/17 05:58:26;;;;;;;1.27;0.80;;;;;;;5.93;79.12;101525.50;4824274;29;20061;-96
2022/09/17 06:00:52;;;;;;;5.65;0.85;;;;;;;5.92;79.75;101521.19;4841151;29;20106;-96
2022/09/17 06:03:21;;;;;;;4.05;0.95;;;;;;;5.90;79.01;101523.03;4841514;29;20038;-96
2022/09/17 06:05:54;;;;;;;3.40;0.85;;;;;;;5.82;79.77;101518.22;4843250;29;20133;-97
2022/09/17 06:08:21;;;;;;;4.20;0.80;;;;;;;5.85;79.78;101532.94;4852269;29;20049;-96
2022/09/17 06:10:48;;;;;;;3.20;0.75;;;;;;;5.85;79.65;101530.31;4835542;29;20407;-96
2022/09/17 06:13:17;;;;;;;6.53;0.90;;;;;;;5.90;79.65;101527.44;4849392;29;20057;-96
2022/09/17 06:15:50;;;;;;;6.28;0.82;;;;;;;5.93;79.27;101540.38;4841033;29;20034;-96
2022/09/17 06:18:17;;;;;;;4.05;0.93;;;;;;;5.88;79.26;101529.28;4845445;29;20069;-96
2022/09/17 06:20:52;;;;;;;4.20;0.90;;;;;;;5.89;79.20;101531.00;4830634;29;20041;-96
2022/09/17 06:23:18;;;;;;;4.53;0.65;;;;;;;5.82;79.06;101535.75;4838654;29;20042;-96
2022/09/17 06:25:51;;;;;;;2.50;0.85;;;;;;;5.81;78.68;101540.13;4828219;29;20041;-97
2022/09/17 06:28:17;;;;;;;2.28;1.05;;;;;;;5.76;79.38;101530.84;4848605;29;20069;-96
2022/09/17 06:30:43;;;;;;;6.68;1.05;;;;;;;5.70;79.27;101526.78;4836239;29;20041;-96
2022/09/17 06:33:10;;;;;;;2.45;0.93;;;;;;;5.74;79.37;101536.19;4851046;29;20186;-96
2022/09/17 06:35:36;;;;;;;1.75;0.95;;;;;;;5.73;79.67;101537.13;4846439;29;20041;-96
2022/09/17 06:38:05;;;;;;;1.92;0.77;;;;;;;5.74;79.22;101536.19;4852785;29;20034;-96
2022/09/17 06:40:31;;;;;;;3.70;0.82;;;;;;;5.79;79.63;101541.16;4839820;29;20081;-96
2022/09/17 06:42:59;;;;;;;7.55;1.00;;;;;;;5.77;79.76;101548.25;4853015;29;20042;-96
2022/09/17 06:45:26;;;;;;;5.43;0.95;;;;;;;5.81;79.68;101545.38;4847621;29;20044;-96
2022/09/17 06:48:03;;;;;;;5.47;0.80;;;;;;;5.83;79.41;101538.28;4847757;29;20038;-96
2022/09/17 06:50:30;;;;;;;3.30;0.80;;;;;;;5.80;79.83;101545.47;4862280;29;20242;-96
2022/09/17 06:52:56;;;;;;;1.23;0.73;;;;;;;5.75;79.88;101545.72;4824110;29;20502;-96
2022/09/17 06:55:22;;;;;;;1.42;0.73;;;;;;;5.78;80.76;101552.59;4850633;29;20039;-96
2022/09/17 06:57:49;;;;;;;2.03;0.95;;;;;;;5.83;80.46;101550.53;4865646;29;20519;-96
2022/09/17 07:00:15;;;;;;;1.00;0.82;;;;;;;5.82;81.15;101547.09;4813891;29;20030;-96
2022/09/17 07:02:41;;;;;;;2.42;1.52;;;;;;;5.88;81.25;101551.13;4850939;29;20037;-96
2022/09/17 07:05:07;;;;;;;1.15;0.93;;;;;;;5.91;81.47;101548.34;4853999;29;20041;-96
2022/09/17 07:07:34;;;;;;;3.08;1.30;;;;;;;5.92;81.35;101551.81;4837685;29;20082;-96
2022/09/17 07:10:01;;;;;;;4.68;1.15;;;;;;;5.95;80.84;101556.91;4849859;29;20109;-96
2022/09/17 07:12:31;;;;;;;1.48;1.00;;;;;;;6.00;81.34;101548.75;4848260;29;20050;-96
2022/09/17 07:14:57;;;;;;;1.10;1.00;;;;;;;6.05;81.11;101546.75;4851374;29;20046;-96
2022/09/17 07:17:24;;;;;;;1.50;1.17;;;;;;;6.05;81.39;101541.50;4851639;29;20049;-96
2022/09/17 07:19:50;;;;;;;1.90;1.20;;;;;;;6.11;81.74;101556.06;4848513;29;20095;-96
2022/09/17 07:22:17;;;;;;;1.35;1.10;;;;;;;6.17;81.27;101553.94;4829748;29;20053;-96
2022/09/17 07:24:44;;;;;;;1.00;0.80;;;;;;;6.24;81.34;101548.31;4848578;29;20113;-96
2022/09/17 07:27:10;;;;;;;1.83;0.98;;;;;;;6.33;81.13;101553.91;4838130;29;20069;-96
2022/09/17 07:29:36;;;;;;;1.45;0.85;;;;;;;6.47;82.05;101562.75;4849467;29;20038;-96
2022/09/17 07:32:02;;;;;;;1.35;0.90;;;;;;;6.53;82.11;101556.31;4836305;29;20046;-96
2022/09/17 07:34:29;;;;;;;1.23;1.13;;;;;;;6.60;81.74;101559.38;4819761;29;20044;-96
2022/09/17 07:36:55;;;;;;;1.38;1.13;;;;;;;6.66;81.75;101559.03;4839326;29;20101;-96
2022/09/17 07:39:25;;;;;;;1.98;1.20;;;;;;;6.86;82.68;101562.25;4858230;29;20110;-96
2022/09/17 07:41:52;;;;;;;4.00;1.25;;;;;;;7.00;82.52;101559.66;4846182;29;20046;-96
2022/09/17 07:44:20;;;;;;;2.00;1.17;;;;;;;7.11;82.62;101555.50;4859247;29;20034;-96
2022/09/17 07:46:47;;;;;;;1.90;1.02;;;;;;;7.15;82.42;101547.34;4871550;29;20588;-96
2022/09/17 07:49:16;;;;;;;2.15;1.25;;;;;;;7.27;82.97;101550.16;4834598;29;20033;-96
2022/09/17 07:51:43;;;;;;;1.15;1.05;;;;;;;7.39;83.14;101554.66;4826561;29;20042;-96
2022/09/17 07:54:09;;;;;;;3.30;1.30;;;;;;;7.53;83.35;101556.41;4856632;29;20033;-96
2022/09/17 07:56:36;;;;;;;1.23;1.13;;;;;;;7.66;83.23;101551.22;4835314;29;20058;-96
2022/09/17 07:59:04;;;;;;;3.03;1.50;;;;;;;7.78;83.27;101551.38;4875137;29;20041;-96
2022/09/17 08:01:38;;;;;;;2.40;1.50;;;;;;;7.88;83.50;101554.28;4846105;29;20044;-96
2022/09/17 08:04:04;;;;;;;1.63;1.40;;;;;;;7.87;83.66;101548.16;4874004;29;20074;-96
2022/09/17 08:06:31;;;;;;;4.38;1.75;;;;;;;7.96;84.07;101556.41;4828883;29;20034;-96
2022/09/17 08:08:58;;;;;;;3.63;1.60;;;;;;;8.03;84.50;101553.28;4862014;29;20073;-96
2022/09/17 08:11:28;;;;;;;3.15;1.63;;;;;;;8.15;84.66;101556.06;4833146;29;20065;-96
2022/09/17 08:13:54;;;;;;;1.50;1.40;;;;;;;8.18;84.75;101554.06;4842725;29;20117;-96
2022/09/17 08:16:25;;;;;;;4.38;1.70;;;;;;;8.23;84.85;101561.66;4845971;29;20060;-96
2022/09/17 08:18:57;;;;;;;2.30;1.20;;;;;;;8.28;85.47;101551.66;4843918;29;20033;-96
2022/09/17 08:21:24;;;;;;;3.28;1.58;;;;;;;8.35;85.48;101548.59;4874248;29;20049;-96
2022/09/17 08:23:50;;;;;;;4.88;1.58;;;;;;;8.44;85.89;101548.84;4860387;29;20042;-91
2022/09/17 08:26:18;;;;;;;3.40;1.52;;;;;;;8.51;86.13;101556.31;4873656;29;20049;-91
2022/09/17 08:28:49;;;;;;;3.33;1.52;;;;;;;8.57;85.92;101561.22;4885433;29;20038;-96
2022/09/17 08:31:18;;;;;;;3.28;1.55;;;;;;;8.64;86.60;101566.94;4840812;29;20044;-96
2022/09/17 08:33:45;;;;;;;3.97;1.60;;;;;;;8.69;86.65;101562.19;4854444;29;20482;-96
2022/09/17 08:36:14;;;;;;;2.05;1.40;;;;;;;8.81;87.06;101571.91;4828543;29;20057;-97
2022/09/17 08:38:40;;;;;;;5.47;1.48;;;;;;;8.89;87.36;101560.81;4830445;29;20048;-96
2022/09/17 08:41:11;;;;;;;9.15;1.75;;;;;;;9.00;87.23;101568.00;4836888;29;20398;-96
2022/09/17 08:43:53;;;;;;;2.22;1.15;;;;;;;9.11;87.36;101574.34;4887324;29;20044;-96
2022/09/17 08:46:19;;;;;;;6.13;1.45;;;;;;;9.21;87.71;101572.72;4862067;29;20052;-96
2022/09/17 08:49:06;;;;;;;2.78;1.15;;;;;;;9.29;87.57;101566.91;4832951;29;20042;-96
2022/09/17 08:51:47;;;;;;;5.60;1.13;;;;;;;9.41;87.42;101568.69;4847363;29;20065;-96
2022/09/17 08:54:31;;;;;;;2.55;1.40;;;;;;;9.51;87.63;101574.16;4847112;29;20025;-96
2022/09/17 08:57:35;;;;;;;2.78;1.27;;;;;;;9.67;87.25;101571.25;4858719;29;20071;-96
2022/09/17 09:00:18;;;;;;;1.98;1.13;;;;;;;9.82;87.05;101565.81;4823251;29;20052;-96
2022/09/17 09:03:03;;;;;;;4.10;1.05;;;;;;;9.96;87.07;101567.47;4843271;29;20128;-96
2022/09/17 09:05:44;;;;;;;2.95;1.17;;;;;;;10.09;87.03;101571.84;4831552;29;20089;-96
2022/09/17 09:08:34;;;;;;;2.30;1.35;;;;;;;10.16;86.79;101576.53;4862046;29;20049;-96
2022/09/17 09:11:03;;;;;;;4.63;1.17;;;;;;;10.24;86.77;101575.97;4828924;29;20056;-96
2022/09/17 09:13:41;;;;;;;2.78;1.00;;;;;;;10.33;86.71;101578.91;4829223;29;20398;-96
2022/09/17 09:16:28;;;;;;;4.15;1.00;;;;;;;10.45;86.70;101577.16;4846445;29;20037;-96
2022/09/17 09:18:58;;;;;;;5.18;0.85;;;;;;;10.55;86.78;101578.16;4830848;29;20069;-96
2022/09/17 09:21:33;;;;;;;3.72;0.93;;;;;;;10.63;86.66;101580.22;4858170;29;20402;-96
2022/09/17 09:24:21;;;;;;;1.98;0.85;;;;;;;10.71;86.55;101577.84;4831643;29;20041;-96
2022/09/17 09:27:16;;;;;;;3.65;1.05;;;;;;;10.76;86.47;101585.41;4856454;29;20056;-96
2022/09/17 09:30:13;;;;;;;1.63;0.77;;;;;;;10.82;86.14;101587.59;4856718;29;20131;-93
2022/09/17 09:32:46;;;;;;;1.00;0.68;;;;;;;10.94;86.38;101587.63;4839372;29;20074;-96
2022/09/17 09:35:17;;;;;;;3.05;0.80;;;;;;;11.11;86.14;101578.38;4861431;29;20098;-96
2022/09/17 09:37:51;;;;;;;4.40;0.90;;;;;;;11.26;85.66;101585.09;4862229;29;20045;-96
2022/09/17 09:40:35;;;;;;;2.00;1.25;;;;;;;11.39;84.85;101589.41;4846435;29;20041;-96
2022/09/17 09:43:10;;;;;;;3.83;0.82;;;;;;;11.50;85.06;101580.63;4875128;29;20490;-96
2022/09/17 09:45:56;;;;;;;4.88;1.27;;;;;;;11.64;84.52;101585.66;4876438;29;20049;-96
2022/09/17 09:49:07;;;;;;;3.58;0.85;;;;;;;11.78;84.07;101587.19;4845571;29;20056;-96
2022/09/17 09:52:03;;;;;;;3.63;0.50;;;;;;;11.92;83.93;101582.59;4854106;29;20052;-96
2022/09/17 09:54:43;;;;;;;1.58;0.60;;;;;;;12.00;83.28;101574.03;4845535;29;20136;-96
2022/09/17 09:57:16;;;;;;;4.20;1.00;;;;;;;12.15;82.98;101577.25;4858662;29;20045;-96
2022/09/17 09:59:41;;;;;;;2.13;0.35;;;;;;;12.21;82.85;101578.56;4875204;29;20045;-96
2022/09/17 10:02:09;;;;;;;3.83;0.80;;;;;;;12.25;82.59;101578.16;4861111;29;20037;-96
2022/09/17 10:04:37;;;;;;;1.73;0.40;;;;;;;12.26;81.79;101581.66;4851677;29;20053;-96
2022/09/17 10:07:10;;;;;;;3.67;0.75;;;;;;;12.36;80.88;101579.91;4848103;29;20077;-96
2022/09/17 10:09:38;;;;;;;2.97;0.50;;;;;;;12.42;80.28;101577.75;4846556;29;20085;-96
2022/09/17 10:12:06;;;;;;;2.58;0.40;;;;;;;12.48;79.75;101571.91;4846588;29;20044;-96
2022/09/17 10:14:35;;;;;;;3.03;0.70;;;;;;;12.49;79.13;101571.78;4846916;29;20049;-96
2022/09/17 10:17:24;;;;;;;2.28;0.60;;;;;;;12.49;79.24;101561.19;4877071;29;20037;-96
2022/09/17 10:20:09;;;;;;;2.70;0.50;;;;;;;12.55;79.26;101572.25;4840971;29;20077;-96
2022/09/17 10:22:45;;;;;;;3.95;0.60;;;;;;;12.60;78.55;101562.91;4848398;29;20037;-96
2022/09/17 10:25:30;;;;;;;1.20;0.50;;;;;;;12.67;77.76;101565.06;4831150;29;20046;-96
2022/09/17 10:27:58;;;;;;;5.15;0.73;;;;;;;12.67;77.46;101568.56;4865267;29;20052;-96
2022/09/17 10:30:24;;;;;;;4.05;0.50;;;;;;;12.73;77.37;101564.53;4862265;29;20065;-96
2022/09/17 10:33:13;;;;;;;3.83;0.70;;;;;;;12.83;76.16;101565.44;4865432;29;20044;-96
2022/09/17 10:35:39;;;;;;;4.22;0.77;;;;;;;12.87;76.05;101563.34;4867673;29;20032;-95
2022/09/17 10:38:04;;;;;;;2.90;0.50;;;;;;;12.91;75.81;101564.78;4849576;29;20029;-96
2022/09/17 10:40:31;;;;;;;4.80;0.50;;;;;;;12.94;75.63;101561.00;4861498;29;20052;-96
2022/09/17 10:43:18;;;;;;;8.00;1.17;;;;;;;12.98;74.84;101557.94;4860347;29;20379;-96
2022/09/17 10:45:55;;;;;;;3.08;1.05;;;;;;;13.12;75.12;101563.91;4848994;29;20036;-95
2022/09/17 10:48:21;;;;;;;4.13;1.02;;;;;;;13.14;74.60;101562.78;4846395;29;20044;-96
2022/09/17 10:50:49;;;;;;;3.97;0.70;;;;;;;13.12;74.64;101556.75;4866799;29;20052;-96
2022/09/17 10:53:17;;;;;;;1.75;0.65;;;;;;;13.25;74.69;101551.22;4862334;29;20386;-96
2022/09/17 10:55:54;;;;;;;7.13;0.65;;;;;;;13.35;73.31;101543.28;4864447;29;20051;-96
2022/09/17 10:58:40;;;;;;;2.60;0.30;;;;;;;13.46;73.13;101546.78;4880692;29;20044;-96
2022/09/17 11:01:39;;;;;;;2.90;0.65;;;;;;;13.57;72.75;101549.38;4850213;29;20072;-96
2022/09/17 11:04:39;;;;;;;2.22;0.43;;;;;;;13.49;71.86;101541.25;4848538;29;20037;-95
2022/09/17 11:07:43;;;;;;;1.80;0.40;;;;;;;13.34;71.86;101551.38;4850358;29;20072;-96
2022/09/17 11:10:23;;;;;;;3.63;0.43;;;;;;;13.34;72.38;101552.25;4858634;29;20084;-96
2022/09/17 11:13:01;;;;;;;1.70;0.38;;;;;;;13.33;71.75;101547.06;4861572;29;20139;-96
2022/09/17 11:15:53;;;;;;;4.47;0.50;;;;;;;13.28;71.02;101537.66;4875882;29;20041;-95
2022/09/17 11:18:38;;;;;;;2.22;0.55;;;;;;;13.30;70.64;101536.72;4861452;29;20206;-94
2022/09/17 11:21:39;;;;;;;4.07;0.70;;;;;;;13.22;69.77;101530.25;4851185;29;20045;-96
2022/09/17 11:24:11;;;;;;;1.50;0.35;;;;;;;13.33;70.26;101533.78;4820133;29;20063;-96
2022/09/17 11:26:55;;;;;;;2.33;0.40;;;;;;;13.33;69.63;101533.78;4862630;29;20049;-96
2022/09/17 11:29:30;;;;;;;2.30;0.40;;;;;;;13.37;69.48;101533.38;4847873;29;20037;-96
2022/09/17 11:32:14;;;;;;;3.20;0.55;;;;;;;13.45;69.47;101522.06;4857338;29;20048;-96
2022/09/17 11:35:00;;;;;;;1.58;0.40;;;;;;;13.54;68.45;101517.78;4875250;29;20131;-96
2022/09/17 11:37:34;;;;;;;1.15;0.43;;;;;;;13.71;68.16;101512.78;4845448;29;20498;-96
2022/09/17 11:40:33;;;;;;;1.42;0.40;;;;;;;13.95;67.06;101514.19;4849533;29;20067;-96
2022/09/17 11:43:06;;;;;;;1.30;0.35;;;;;;;14.17;66.84;101514.84;4861248;29;20049;-96
2022/09/17 11:45:55;;;;;;;6.75;0.50;;;;;;;14.26;65.75;101516.66;4862893;29;20053;-96
2022/09/17 11:48:45;;;;;;;3.85;0.50;;;;;;;14.37;65.45;101507.69;4861592;29;20049;-96
2022/09/17 11:51:30;;;;;;;1.45;0.45;;;;;;;14.50;64.53;101510.88;4860911;29;20120;-95
2022/09/17 11:54:26;;;;;;;1.10;0.30;;;;;;;14.58;64.56;101504.00;4861979;29;20037;-96
2022/09/17 11:57:23;;;;;;;2.22;0.40;;;;;;;14.64;64.12;101504.25;4839930;29;20519;-96
2022/09/17 11:59:51;;;;;;;5.35;0.85;;;;;;;14.66;64.39;101503.25;4861667;29;20077;-96